Time,TemperatureF,DewpointF,PressureIn,WindDirection,WindDirectionDegrees,WindSpeedMPH,WindSpeedGustMPH,Humidity,HourlyPrecipIn,Conditions,Clouds,dailyrainin,SoftwareType,DateUTC
2013-04-27 00:01:00,-999.0,-99.9,30.29,North,-999,-999.0,-999.0,-999,0.00,,,0.00,weatherlink.com 1.10,2013-04-27 04:01:00,
2013-04-27 00:16:00,-999.0,-99.9,30.30,North,-999,-999.0,-999.0,-999,0.00,,,0.00,weatherlink.com 1.10,2013-04-27 04:16:00,
2013-04-27 00:31:00,-999.0,-99.9,30.30,North,-999,-999.0,-999.0,-999,0.00,,,0.00,weatherlink.com 1.10,2013-04-27 04:31:00,
2013-04-27 00:46:00,-999.0,-99.9,30.30,North,-999,-999.0,-999.0,-999,0.00,,,0.00,weatherlink.com 1.10,2013-04-27 04:46:00,
2013-04-27 01:01:00,-999.0,-99.9,30.30,North,-999,-999.0,-999.0,-999,0.00,,,0.00,weatherlink.com 1.10,2013-04-27 05:01:00,
2013-04-27 01:16:00,-999.0,-99.9,30.30,North,-999,-999.0,-999.0,-999,0.00,,,0.00,weatherlink.com 1.10,2013-04-27 05:16:00,
2013-04-27 01:32:00,-999.0,-99.9,30.30,North,-999,-999.0,-999.0,-999,0.00,,,0.00,weatherlink.com 1.10,2013-04-27 05:32:00,
2013-04-27 01:47:00,-999.0,-99.9,30.30,North,-999,-999.0,-999.0,-999,0.00,,,0.00,weatherlink.com 1.10,2013-04-27 05:47:00,
2013-04-27 02:02:00,-999.0,-99.9,30.30,North,-999,-999.0,-999.0,-999,0.00,,,0.00,weatherlink.com 1.10,2013-04-27 06:02:00,
2013-04-27 02:17:00,-999.0,-99.9,30.29,North,-999,-999.0,-999.0,-999,0.00,,,0.00,weatherlink.com 1.10,2013-04-27 06:17:00,
2013-04-27 02:32:00,-999.0,-99.9,30.28,North,-999,-999.0,-999.0,-999,0.00,,,0.00,weatherlink.com 1.10,2013-04-27 06:32:00,
2013-04-27 02:47:00,-999.0,-99.9,30.28,North,-999,-999.0,-999.0,-999,0.00,,,0.00,weatherlink.com 1.10,2013-04-27 06:47:00,
2013-04-27 03:02:00,-999.0,-99.9,30.28,North,-999,-999.0,-999.0,-999,0.00,,,0.00,weatherlink.com 1.10,2013-04-27 07:02:00,
2013-04-27 03:17:00,-999.0,-99.9,30.27,North,-999,-999.0,-999.0,-999,0.00,,,0.00,weatherlink.com 1.10,2013-04-27 07:17:00,
2013-04-27 03:32:00,-999.0,-99.9,30.27,North,-999,-999.0,-999.0,-999,0.00,,,0.00,weatherlink.com 1.10,2013-04-27 07:32:00,
2013-04-27 03:47:00,-999.0,-99.9,30.27,North,-999,-999.0,-999.0,-999,0.00,,,0.00,weatherlink.com 1.10,2013-04-27 07:47:00,
2013-04-27 04:02:00,-999.0,-99.9,30.27,North,-999,-999.0,-999.0,-999,0.00,,,0.00,weatherlink.com 1.10,2013-04-27 08:02:00,
2013-04-27 04:17:00,-999.0,-99.9,30.28,North,-999,-999.0,-999.0,-999,0.00,,,0.00,weatherlink.com 1.10,2013-04-27 08:17:00,
2013-04-27 04:32:00,-999.0,-99.9,30.27,North,-999,-999.0,-999.0,-999,0.00,,,0.00,weatherlink.com 1.10,2013-04-27 08:32:00,
2013-04-27 04:48:00,-999.0,-99.9,30.27,North,-999,-999.0,-999.0,-999,0.00,,,0.00,weatherlink.com 1.10,2013-04-27 08:48:00,
2013-04-27 05:03:00,-999.0,-99.9,30.27,North,-999,-999.0,-999.0,-999,0.00,,,0.00,weatherlink.com 1.10,2013-04-27 09:03:00,
2013-04-27 05:18:00,-999.0,-99.9,30.28,North,-999,-999.0,-999.0,-999,0.00,,,0.00,weatherlink.com 1.10,2013-04-27 09:18:00,
2013-04-27 05:33:00,-999.0,-99.9,30.28,North,-999,-999.0,-999.0,-999,0.00,,,0.00,weatherlink.com 1.10,2013-04-27 09:33:00,
2013-04-27 05:48:00,-999.0,-99.9,30.28,North,-999,-999.0,-999.0,-999,0.00,,,0.00,weatherlink.com 1.10,2013-04-27 09:48:00,
2013-04-27 06:03:00,-999.0,-99.9,30.28,North,-999,-999.0,-999.0,-999,0.00,,,0.00,weatherlink.com 1.10,2013-04-27 10:03:00,
2013-04-27 06:18:00,-999.0,-99.9,30.28,North,-999,-999.0,-999.0,-999,0.00,,,0.00,weatherlink.com 1.10,2013-04-27 10:18:00,
2013-04-27 06:33:00,-999.0,-99.9,30.28,North,-999,-999.0,-999.0,-999,0.00,,,0.00,weatherlink.com 1.10,2013-04-27 10:33:00,
2013-04-27 06:48:00,-999.0,-99.9,30.28,North,-999,-999.0,-999.0,-999,0.00,,,0.00,weatherlink.com 1.10,2013-04-27 10:48:00,
2013-04-27 07:03:00,-999.0,-99.9,30.29,North,-999,-999.0,-999.0,-999,0.00,,,0.00,weatherlink.com 1.10,2013-04-27 11:03:00,
2013-04-27 07:18:00,-999.0,-99.9,30.29,North,-999,-999.0,-999.0,-999,0.00,,,0.00,weatherlink.com 1.10,2013-04-27 11:18:00,
2013-04-27 07:33:00,-999.0,-99.9,30.29,North,-999,-999.0,-999.0,-999,0.00,,,0.00,weatherlink.com 1.10,2013-04-27 11:33:00,
2013-04-27 07:48:00,50.7,38.0,30.30,ENE,67,0.0,0.0,63,0.00,,,0.00,weatherlink.com 1.10,2013-04-27 11:48:00,
2013-04-27 08:03:00,-999.0,-99.9,30.30,North,-999,-999.0,-999.0,-999,0.00,,,0.00,weatherlink.com 1.10,2013-04-27 12:03:00,
2013-04-27 08:19:00,-999.0,-99.9,30.30,North,-999,-999.0,-999.0,-999,0.00,,,0.00,weatherlink.com 1.10,2013-04-27 12:19:00,
2013-04-27 08:34:00,52.4,39.0,30.30,ENE,67,0.0,0.0,60,0.00,,,0.00,weatherlink.com 1.10,2013-04-27 12:34:00,
2013-04-27 08:49:00,-999.0,-99.9,30.30,North,-999,-999.0,-999.0,-999,0.00,,,0.00,weatherlink.com 1.10,2013-04-27 12:49:00,
2013-04-27 09:03:00,53.5,39.0,30.30,ENE,67,0.0,0.0,59,0.00,,,0.00,weatherlink.com 1.10,2013-04-27 13:03:00,
2013-04-27 09:18:00,54.3,39.0,30.30,ENE,67,0.0,0.0,57,0.00,,,0.00,weatherlink.com 1.10,2013-04-27 13:18:00,
2013-04-27 09:34:00,54.9,41.0,30.29,ENE,67,0.0,0.0,59,0.00,,,0.00,weatherlink.com 1.10,2013-04-27 13:34:00,
2013-04-27 09:48:00,55.2,41.0,30.30,ENE,67,0.0,1.0,59,0.00,,,0.00,weatherlink.com 1.10,2013-04-27 13:48:00,
2013-04-27 10:03:00,55.5,41.0,30.30,East,80,0.0,3.0,59,0.00,,,0.00,weatherlink.com 1.10,2013-04-27 14:03:00,
2013-04-27 10:18:00,55.9,39.0,30.30,East,98,0.0,2.0,53,0.00,,,0.00,weatherlink.com 1.10,2013-04-27 14:18:00,
2013-04-27 10:33:00,56.8,39.0,30.29,East,88,0.0,3.0,51,0.00,,,0.00,weatherlink.com 1.10,2013-04-27 14:33:00,
2013-04-27 10:48:00,57.9,41.0,30.29,East,101,1.0,3.0,53,0.00,,,0.00,weatherlink.com 1.10,2013-04-27 14:48:00,
2013-04-27 11:03:00,58.9,39.0,30.29,East,94,1.0,3.0,48,0.00,,,0.00,weatherlink.com 1.10,2013-04-27 15:03:00,
2013-04-27 11:18:00,59.5,41.0,30.29,ENE,74,0.0,5.0,51,0.00,,,0.00,weatherlink.com 1.10,2013-04-27 15:18:00,
2013-04-27 11:33:00,59.8,41.0,30.29,East,84,2.0,3.0,50,0.00,,,0.00,weatherlink.com 1.10,2013-04-27 15:33:00,
2013-04-27 11:48:00,61.1,41.0,30.29,ENE,67,1.0,3.0,48,0.00,,,0.00,weatherlink.com 1.10,2013-04-27 15:48:00,
2013-04-27 12:03:00,62.0,42.0,30.29,ESE,104,0.0,4.0,49,0.00,,,0.00,weatherlink.com 1.10,2013-04-27 16:03:00,
2013-04-27 12:18:00,63.6,41.0,30.28,East,96,1.0,6.0,43,0.00,,,0.00,weatherlink.com 1.10,2013-04-27 16:18:00,
2013-04-27 12:33:00,64.6,43.0,30.27,ENE,62,0.0,7.0,45,0.00,,,0.00,weatherlink.com 1.10,2013-04-27 16:33:00,
2013-04-27 12:48:00,65.9,41.0,30.27,East,96,0.0,5.0,41,0.00,,,0.00,weatherlink.com 1.10,2013-04-27 16:48:00,
2013-04-27 13:03:00,65.5,41.0,30.26,East,86,1.0,7.0,41,0.00,,,0.00,weatherlink.com 1.10,2013-04-27 17:03:00,
2013-04-27 13:18:00,65.5,42.0,30.26,East,99,2.0,8.0,42,0.00,,,0.00,weatherlink.com 1.10,2013-04-27 17:18:00,
2013-04-27 13:33:00,65.5,42.0,30.25,East,88,3.0,8.0,43,0.00,,,0.00,weatherlink.com 1.10,2013-04-27 17:33:00,
2013-04-27 13:48:00,65.1,42.0,30.25,East,88,1.0,5.0,44,0.00,,,0.00,weatherlink.com 1.10,2013-04-27 17:48:00,
2013-04-27 14:03:00,64.9,41.0,30.25,East,94,3.0,7.0,42,0.00,,,0.00,weatherlink.com 1.10,2013-04-27 18:03:00,
2013-04-27 14:18:00,65.1,42.0,30.25,ESE,108,1.0,4.0,43,0.00,,,0.00,weatherlink.com 1.10,2013-04-27 18:18:00,
2013-04-27 14:33:00,65.1,42.0,30.25,East,88,2.0,9.0,43,0.00,,,0.00,weatherlink.com 1.10,2013-04-27 18:33:00,
2013-04-27 14:49:00,64.9,42.0,30.25,East,79,1.0,7.0,43,0.00,,,0.00,weatherlink.com 1.10,2013-04-27 18:49:00,
2013-04-27 15:04:00,64.6,42.0,30.25,East,84,5.0,8.0,44,0.00,,,0.00,weatherlink.com 1.10,2013-04-27 19:04:00,
2013-04-27 15:19:00,64.9,41.0,30.25,East,80,5.0,8.0,42,0.00,,,0.00,weatherlink.com 1.10,2013-04-27 19:19:00,
2013-04-27 15:34:00,64.7,41.0,30.24,ESE,104,4.0,9.0,42,0.00,,,0.00,weatherlink.com 1.10,2013-04-27 19:34:00,
2013-04-27 15:49:00,65.1,41.0,30.23,East,82,5.0,11.0,42,0.00,,,0.00,weatherlink.com 1.10,2013-04-27 19:49:00,
2013-04-27 16:04:00,64.7,41.0,30.22,East,94,5.0,9.0,42,0.00,,,0.00,weatherlink.com 1.10,2013-04-27 20:04:00,
2013-04-27 16:19:00,64.7,41.0,30.22,SE,132,1.0,6.0,42,0.00,,,0.00,weatherlink.com 1.10,2013-04-27 20:19:00,
2013-04-27 16:34:00,64.9,42.0,30.22,NNW,331,0.0,6.0,44,0.00,,,0.00,weatherlink.com 1.10,2013-04-27 20:34:00,
2013-04-27 16:49:00,64.4,41.0,30.22,East,88,3.0,3.0,43,0.00,,,0.00,weatherlink.com 1.10,2013-04-27 20:49:00,
2013-04-27 17:04:00,63.8,42.0,30.22,East,86,0.0,7.0,45,0.00,,,0.00,weatherlink.com 1.10,2013-04-27 21:04:00,
2013-04-27 17:19:00,63.3,43.0,30.22,NE,47,1.0,4.0,48,0.00,,,0.00,weatherlink.com 1.10,2013-04-27 21:19:00,
2013-04-27 17:34:00,62.5,45.0,30.23,ENE,64,0.0,5.0,53,0.00,,,0.00,weatherlink.com 1.10,2013-04-27 21:34:00,
2013-04-27 17:50:00,61.7,46.0,30.23,NW,326,0.0,6.0,56,0.00,,,0.00,weatherlink.com 1.10,2013-04-27 21:50:00,
2013-04-27 18:04:00,60.8,46.0,30.23,NNE,22,0.0,2.0,59,0.00,,,0.00,weatherlink.com 1.10,2013-04-27 22:04:00,
2013-04-27 18:19:00,-999.0,-99.9,30.22,North,-999,-999.0,-999.0,-999,0.00,,,0.00,weatherlink.com 1.10,2013-04-27 22:19:00,
2013-04-27 18:34:00,60.4,44.0,30.22,NW,317,0.0,3.0,56,0.00,,,0.00,weatherlink.com 1.10,2013-04-27 22:34:00,
2013-04-27 18:50:00,-999.0,-99.9,30.22,North,-999,-999.0,-999.0,-999,0.00,,,0.00,weatherlink.com 1.10,2013-04-27 22:50:00,
2013-04-27 19:05:00,-999.0,-99.9,30.21,North,-999,-999.0,-999.0,-999,0.00,,,0.00,weatherlink.com 1.10,2013-04-27 23:05:00,
2013-04-27 19:20:00,-999.0,-99.9,30.22,North,-999,-999.0,-999.0,-999,0.00,,,0.00,weatherlink.com 1.10,2013-04-27 23:20:00,
2013-04-27 19:35:00,-999.0,-99.9,30.21,North,-999,-999.0,-999.0,-999,0.00,,,0.00,weatherlink.com 1.10,2013-04-27 23:35:00,
2013-04-27 19:50:00,-999.0,-99.9,30.21,North,-999,-999.0,-999.0,-999,0.00,,,0.00,weatherlink.com 1.10,2013-04-27 23:50:00,
2013-04-27 20:05:00,-999.0,-99.9,30.21,North,-999,-999.0,-999.0,-999,0.00,,,0.00,weatherlink.com 1.10,2013-04-28 00:05:00,
2013-04-27 20:20:00,-999.0,-99.9,30.21,North,-999,-999.0,-999.0,-999,0.00,,,0.00,weatherlink.com 1.10,2013-04-28 00:20:00,
2013-04-27 20:35:00,-999.0,-99.9,30.22,North,-999,-999.0,-999.0,-999,0.00,,,0.00,weatherlink.com 1.10,2013-04-28 00:35:00,
2013-04-27 20:50:00,-999.0,-99.9,30.22,North,-999,-999.0,-999.0,-999,0.00,,,0.00,weatherlink.com 1.10,2013-04-28 00:50:00,
2013-04-27 21:05:00,-999.0,-99.9,30.22,North,-999,-999.0,-999.0,-999,0.00,,,0.00,weatherlink.com 1.10,2013-04-28 01:05:00,
2013-04-27 21:20:00,-999.0,-99.9,30.22,North,-999,-999.0,-999.0,-999,0.00,,,0.00,weatherlink.com 1.10,2013-04-28 01:20:00,
2013-04-27 21:35:00,-999.0,-99.9,30.22,North,-999,-999.0,-999.0,-999,0.00,,,0.00,weatherlink.com 1.10,2013-04-28 01:35:00,
2013-04-27 21:50:00,-999.0,-99.9,30.21,North,-999,-999.0,-999.0,-999,0.00,,,0.00,weatherlink.com 1.10,2013-04-28 01:50:00,
2013-04-27 22:05:00,-999.0,-99.9,30.21,North,-999,-999.0,-999.0,-999,0.00,,,0.00,weatherlink.com 1.10,2013-04-28 02:05:00,
2013-04-27 22:21:00,-999.0,-99.9,30.21,North,-999,-999.0,-999.0,-999,0.00,,,0.00,weatherlink.com 1.10,2013-04-28 02:21:00,
2013-04-27 22:36:00,-999.0,-99.9,30.20,North,-999,-999.0,-999.0,-999,0.00,,,0.00,weatherlink.com 1.10,2013-04-28 02:36:00,
2013-04-27 22:51:00,-999.0,-99.9,30.20,North,-999,-999.0,-999.0,-999,0.00,,,0.00,weatherlink.com 1.10,2013-04-28 02:51:00,
2013-04-27 23:06:00,-999.0,-99.9,30.20,North,-999,-999.0,-999.0,-999,0.00,,,0.00,weatherlink.com 1.10,2013-04-28 03:06:00,
2013-04-27 23:21:00,-999.0,-99.9,30.20,North,-999,-999.0,-999.0,-999,0.00,,,0.00,weatherlink.com 1.10,2013-04-28 03:21:00,
2013-04-27 23:36:00,-999.0,-99.9,30.19,North,-999,-999.0,-999.0,-999,0.00,,,0.00,weatherlink.com 1.10,2013-04-28 03:36:00,
2013-04-27 23:51:00,-999.0,-99.9,30.19,North,-999,-999.0,-999.0,-999,0.00,,,0.00,weatherlink.com 1.10,2013-04-28 03:51:00,